sensor_id;sensor_type;location;lat;lon;timestamp;temperature;humidity
30300;DHT22;17110;52.602;12.998;2023-06-01T00:01:46;12.60;99.90
30300;DHT22;17110;52.602;12.998;2023-06-01T00:04:12;12.50;99.90
30300;DHT22;17110;52.602;12.998;2023-06-01T00:06:37;12.50;99.90
30300;DHT22;17110;52.602;12.998;2023-06-01T00:09:03;12.40;99.90
30300;DHT22;17110;52.602;12.998;2023-06-01T00:11:28;12.40;99.90
30300;DHT22;17110;52.602;12.998;2023-06-01T00:13:54;12.40;99.90
30300;DHT22;17110;52.602;12.998;2023-06-01T00:16:20;12.30;99.90
30300;DHT22;17110;52.602;12.998;2023-06-01T00:18:47;12.30;99.90
30300;DHT22;17110;52.602;12.998;2023-06-01T00:21:12;12.20;99.90
30300;DHT22;17110;52.602;12.998;2023-06-01T00:23:38;12.20;99.90
30300;DHT22;17110;52.602;12.998;2023-06-01T00:26:03;12.10;99.90
30300;DHT22;17110;52.602;12.998;2023-06-01T00:28:29;12.10;99.90
30300;DHT22;17110;52.602;12.998;2023-06-01T00:30:55;12.10;99.90
30300;DHT22;17110;52.602;12.998;2023-06-01T00:33:20;12.10;99.90
30300;DHT22;17110;52.602;12.998;2023-06-01T00:35:50;12.00;99.90
30300;DHT22;17110;52.602;12.998;2023-06-01T00:38:16;11.90;99.90
30300;DHT22;17110;52.602;12.998;2023-06-01T00:40:42;11.90;99.90
30300;DHT22;17110;52.602;12.998;2023-06-01T00:43:07;11.90;99.90
30300;DHT22;17110;52.602;12.998;2023-06-01T00:45:33;11.80;99.90
30300;DHT22;17110;52.602;12.998;2023-06-01T00:47:58;11.80;99.90
30300;DHT22;17110;52.602;12.998;2023-06-01T00:50:25;11.80;99.90
30300;DHT22;17110;52.602;12.998;2023-06-01T00:52:52;11.70;99.90
30300;DHT22;17110;52.602;12.998;2023-06-01T00:55:19;11.70;99.90
30300;DHT22;17110;52.602;12.998;2023-06-01T00:57:45;11.70;99.90
30300;DHT22;17110;52.602;12.998;2023-06-01T01:00:12;11.70;99.90
30300;DHT22;17110;52.602;12.998;2023-06-01T01:02:39;11.70;99.90
30300;DHT22;17110;52.602;12.998;2023-06-01T01:05:06;11.70;99.90
30300;DHT22;17110;52.602;12.998;2023-06-01T01:07:35;11.60;99.90
30300;DHT22;17110;52.602;12.998;2023-06-01T01:10:12;11.60;99.90
30300;DHT22;17110;52.602;12.998;2023-06-01T01:12:43;11.60;99.90
30300;DHT22;17110;52.602;12.998;2023-06-01T01:15:16;11.60;99.90
30300;DHT22;17110;52.602;12.998;2023-06-01T01:17:45;11.50;99.90
30300;DHT22;17110;52.602;12.998;2023-06-01T01:20:20;11.50;99.90
30300;DHT22;17110;52.602;12.998;2023-06-01T01:23:06;11.50;99.90
30300;DHT22;17110;52.602;12.998;2023-06-01T01:26:05;11.50;99.90
30300;DHT22;17110;52.602;12.998;2023-06-01T01:28:40;11.50;99.90
30300;DHT22;17110;52.602;12.998;2023-06-01T01:31:09;11.40;99.90
30300;DHT22;17110;52.602;12.998;2023-06-01T01:33:35;11.40;99.90
30300;DHT22;17110;52.602;12.998;2023-06-01T01:36:02;11.40;99.90
30300;DHT22;17110;52.602;12.998;2023-06-01T01:38:29;11.40;99.90
30300;DHT22;17110;52.602;12.998;2023-06-01T01:40:54;11.30;99.90
30300;DHT22;17110;52.602;12.998;2023-06-01T01:43:21;11.30;99.90
30300;DHT22;17110;52.602;12.998;2023-06-01T01:45:54;11.30;99.90
30300;DHT22;17110;52.602;12.998;2023-06-01T01:48:25;11.30;99.90
30300;DHT22;17110;52.602;12.998;2023-06-01T01:50:58;11.30;99.90
30300;DHT22;17110;52.602;12.998;2023-06-01T01:53:29;11.30;99.90
30300;DHT22;17110;52.602;12.998;2023-06-01T01:55:56;11.40;99.90
30300;DHT22;17110;52.602;12.998;2023-06-01T01:58:23;11.40;99.90
30300;DHT22;17110;52.602;12.998;2023-06-01T02:00:51;11.50;99.90
30300;DHT22;17110;52.602;12.998;2023-06-01T02:03:18;11.40;99.90
30300;DHT22;17110;52.602;12.998;2023-06-01T02:05:44;11.50;99.90
30300;DHT22;17110;52.602;12.998;2023-06-01T02:08:10;11.50;99.90
30300;DHT22;17110;52.602;12.998;2023-06-01T02:10:36;11.50;99.90
30300;DHT22;17110;52.602;12.998;2023-06-01T02:13:02;11.60;99.90
30300;DHT22;17110;52.602;12.998;2023-06-01T02:15:28;11.60;99.90
30300;DHT22;17110;52.602;12.998;2023-06-01T02:17:55;11.50;99.90
30300;DHT22;17110;52.602;12.998;2023-06-01T02:20:21;11.50;99.90
30300;DHT22;17110;52.602;12.998;2023-06-01T02:22:47;11.50;99.90
30300;DHT22;17110;52.602;12.998;2023-06-01T02:25:12;11.50;99.90
30300;DHT22;17110;52.602;12.998;2023-06-01T02:27:38;11.40;99.90
30300;DHT22;17110;52.602;12.998;2023-06-01T02:30:05;11.40;99.90
30300;DHT22;17110;52.602;12.998;2023-06-01T02:32:30;11.40;99.90
30300;DHT22;17110;52.602;12.998;2023-06-01T02:34:58;11.40;99.90
30300;DHT22;17110;52.602;12.998;2023-06-01T02:37:23;11.30;99.90
30300;DHT22;17110;52.602;12.998;2023-06-01T02:39:49;11.30;99.90
30300;DHT22;17110;52.602;12.998;2023-06-01T02:42:15;11.30;99.90
30300;DHT22;17110;52.602;12.998;2023-06-01T02:44:40;11.30;99.90
30300;DHT22;17110;52.602;12.998;2023-06-01T02:47:07;11.20;99.90
30300;DHT22;17110;52.602;12.998;2023-06-01T02:49:32;11.30;99.90
30300;DHT22;17110;52.602;12.998;2023-06-01T02:51:59;11.30;99.90
30300;DHT22;17110;52.602;12.998;2023-06-01T02:54:25;11.30;99.90
30300;DHT22;17110;52.602;12.998;2023-06-01T02:56:52;11.20;99.90
30300;DHT22;17110;52.602;12.998;2023-06-01T02:59:33;11.20;99.90
30300;DHT22;17110;52.602;12.998;2023-06-01T03:02:02;11.20;99.90
30300;DHT22;17110;52.602;12.998;2023-06-01T03:04:28;11.00;99.90
30300;DHT22;17110;52.602;12.998;2023-06-01T03:06:54;11.00;99.90
30300;DHT22;17110;52.602;12.998;2023-06-01T03:09:26;11.00;99.90
30300;DHT22;17110;52.602;12.998;2023-06-01T03:11:59;11.00;99.90
30300;DHT22;17110;52.602;12.998;2023-06-01T03:14:26;10.90;99.90
30300;DHT22;17110;52.602;12.998;2023-06-01T03:16:51;11.00;99.90
30300;DHT22;17110;52.602;12.998;2023-06-01T03:19:19;11.10;99.90
30300;DHT22;17110;52.602;12.998;2023-06-01T03:21:48;11.10;99.90
30300;DHT22;17110;52.602;12.998;2023-06-01T03:24:17;11.00;99.90
30300;DHT22;17110;52.602;12.998;2023-06-01T03:26:45;10.80;99.90
30300;DHT22;17110;52.602;12.998;2023-06-01T03:29:11;10.80;99.90
30300;DHT22;17110;52.602;12.998;2023-06-01T03:31:36;10.70;99.90
30300;DHT22;17110;52.602;12.998;2023-06-01T03:34:02;10.70;99.90
30300;DHT22;17110;52.602;12.998;2023-06-01T03:36:28;10.70;99.90
30300;DHT22;17110;52.602;12.998;2023-06-01T03:38:54;10.70;99.90
30300;DHT22;17110;52.602;12.998;2023-06-01T03:41:21;10.90;99.90
30300;DHT22;17110;52.602;12.998;2023-06-01T03:43:48;11.00;99.90
30300;DHT22;17110;52.602;12.998;2023-06-01T03:46:14;11.20;99.90
30300;DHT22;17110;52.602;12.998;2023-06-01T03:48:41;11.30;99.90
30300;DHT22;17110;52.602;12.998;2023-06-01T03:51:07;11.40;99.90
30300;DHT22;17110;52.602;12.998;2023-06-01T03:53:34;11.40;99.90
30300;DHT22;17110;52.602;12.998;2023-06-01T03:55:59;11.50;99.90
30300;DHT22;17110;52.602;12.998;2023-06-01T03:58:29;11.60;99.90
30300;DHT22;17110;52.602;12.998;2023-06-01T04:00:56;11.40;99.90
30300;DHT22;17110;52.602;12.998;2023-06-01T04:03:22;11.30;99.90
30300;DHT22;17110;52.602;12.998;2023-06-01T04:05:47;11.40;99.90
30300;DHT22;17110;52.602;12.998;2023-06-01T04:08:13;11.10;99.90
30300;DHT22;17110;52.602;12.998;2023-06-01T04:10:39;11.00;99.90
30300;DHT22;17110;52.602;12.998;2023-06-01T04:13:05;11.00;99.90
30300;DHT22;17110;52.602;12.998;2023-06-01T04:15:31;11.00;99.90
30300;DHT22;17110;52.602;12.998;2023-06-01T04:17:59;10.90;99.90
30300;DHT22;17110;52.602;12.998;2023-06-01T04:20:26;11.00;99.90
30300;DHT22;17110;52.602;12.998;2023-06-01T04:22:52;11.00;99.90
30300;DHT22;17110;52.602;12.998;2023-06-01T04:25:18;10.90;99.90
30300;DHT22;17110;52.602;12.998;2023-06-01T04:27:46;10.90;99.90
30300;DHT22;17110;52.602;12.998;2023-06-01T04:30:13;10.90;99.90
30300;DHT22;17110;52.602;12.998;2023-06-01T04:32:39;10.90;99.90
30300;DHT22;17110;52.602;12.998;2023-06-01T04:35:08;10.80;99.90
30300;DHT22;17110;52.602;12.998;2023-06-01T04:37:35;10.80;99.90
30300;DHT22;17110;52.602;12.998;2023-06-01T04:40:03;10.80;99.90
30300;DHT22;17110;52.602;12.998;2023-06-01T04:42:28;10.90;99.90
30300;DHT22;17110;52.602;12.998;2023-06-01T04:44:54;11.00;99.90
30300;DHT22;17110;52.602;12.998;2023-06-01T04:47:20;11.10;99.90
30300;DHT22;17110;52.602;12.998;2023-06-01T04:49:48;11.10;99.90
30300;DHT22;17110;52.602;12.998;2023-06-01T04:52:15;11.00;99.90
30300;DHT22;17110;52.602;12.998;2023-06-01T04:54:41;11.00;99.90
30300;DHT22;17110;52.602;12.998;2023-06-01T04:57:07;11.10;99.90
30300;DHT22;17110;52.602;12.998;2023-06-01T04:59:32;11.10;99.90
30300;DHT22;17110;52.602;12.998;2023-06-01T05:01:58;11.10;99.90
30300;DHT22;17110;52.602;12.998;2023-06-01T05:04:24;11.20;99.90
30300;DHT22;17110;52.602;12.998;2023-06-01T05:06:50;11.40;99.90
30300;DHT22;17110;52.602;12.998;2023-06-01T05:09:17;11.20;99.90
30300;DHT22;17110;52.602;12.998;2023-06-01T05:11:43;11.20;99.90
30300;DHT22;17110;52.602;12.998;2023-06-01T05:14:08;11.20;99.90
30300;DHT22;17110;52.602;12.998;2023-06-01T05:16:34;11.50;99.90
30300;DHT22;17110;52.602;12.998;2023-06-01T05:19:01;11.70;99.90
30300;DHT22;17110;52.602;12.998;2023-06-01T05:21:27;11.60;99.90
30300;DHT22;17110;52.602;12.998;2023-06-01T05:23:53;11.50;99.90
30300;DHT22;17110;52.602;12.998;2023-06-01T05:26:20;11.50;99.90
30300;DHT22;17110;52.602;12.998;2023-06-01T05:28:46;11.50;99.90
30300;DHT22;17110;52.602;12.998;2023-06-01T05:31:12;11.60;99.90
30300;DHT22;17110;52.602;12.998;2023-06-01T05:33:42;11.70;99.90
30300;DHT22;17110;52.602;12.998;2023-06-01T05:36:08;11.80;99.90
30300;DHT22;17110;52.602;12.998;2023-06-01T05:38:34;11.80;99.90
30300;DHT22;17110;52.602;12.998;2023-06-01T05:41:00;11.80;99.90
30300;DHT22;17110;52.602;12.998;2023-06-01T05:43:27;11.90;99.90
30300;DHT22;17110;52.602;12.998;2023-06-01T05:45:52;11.60;99.90
30300;DHT22;17110;52.602;12.998;2023-06-01T05:48:18;11.50;99.90
30300;DHT22;17110;52.602;12.998;2023-06-01T05:50:48;11.50;99.90
30300;DHT22;17110;52.602;12.998;2023-06-01T05:53:14;11.50;99.90
30300;DHT22;17110;52.602;12.998;2023-06-01T05:55:40;11.50;99.90
30300;DHT22;17110;52.602;12.998;2023-06-01T05:58:06;11.60;99.90
30300;DHT22;17110;52.602;12.998;2023-06-01T06:00:33;11.70;99.90
30300;DHT22;17110;52.602;12.998;2023-06-01T06:02:59;11.70;99.90
30300;DHT22;17110;52.602;12.998;2023-06-01T06:05:24;11.80;99.90
30300;DHT22;17110;52.602;12.998;2023-06-01T06:07:50;11.80;99.90
30300;DHT22;17110;52.602;12.998;2023-06-01T06:10:15;12.00;99.90
30300;DHT22;17110;52.602;12.998;2023-06-01T06:12:41;12.10;99.90
30300;DHT22;17110;52.602;12.998;2023-06-01T06:15:08;12.30;99.90
30300;DHT22;17110;52.602;12.998;2023-06-01T06:17:35;12.50;99.90
30300;DHT22;17110;52.602;12.998;2023-06-01T06:20:00;12.70;99.90
30300;DHT22;17110;52.602;12.998;2023-06-01T06:22:26;12.70;99.90
30300;DHT22;17110;52.602;12.998;2023-06-01T06:24:52;12.50;99.90
30300;DHT22;17110;52.602;12.998;2023-06-01T06:27:17;12.30;99.90
30300;DHT22;17110;52.602;12.998;2023-06-01T06:29:43;12.30;99.90
30300;DHT22;17110;52.602;12.998;2023-06-01T06:32:09;12.60;99.90
30300;DHT22;17110;52.602;12.998;2023-06-01T06:34:36;12.70;99.90
30300;DHT22;17110;52.602;12.998;2023-06-01T06:37:03;12.70;99.90
30300;DHT22;17110;52.602;12.998;2023-06-01T06:39:28;12.30;99.90
30300;DHT22;17110;52.602;12.998;2023-06-01T06:41:54;12.20;99.90
30300;DHT22;17110;52.602;12.998;2023-06-01T06:44:20;12.20;99.90
30300;DHT22;17110;52.602;12.998;2023-06-01T06:46:45;12.10;99.90
30300;DHT22;17110;52.602;12.998;2023-06-01T06:49:11;12.10;99.90
30300;DHT22;17110;52.602;12.998;2023-06-01T06:51:38;12.30;99.90
30300;DHT22;17110;52.602;12.998;2023-06-01T06:54:04;12.50;99.90
30300;DHT22;17110;52.602;12.998;2023-06-01T06:56:29;12.60;99.90
30300;DHT22;17110;52.602;12.998;2023-06-01T06:58:55;12.80;99.90
30300;DHT22;17110;52.602;12.998;2023-06-01T07:01:21;13.00;99.90
30300;DHT22;17110;52.602;12.998;2023-06-01T07:03:46;13.20;99.90
30300;DHT22;17110;52.602;12.998;2023-06-01T07:06:12;13.10;99.90
30300;DHT22;17110;52.602;12.998;2023-06-01T07:08:39;13.10;99.90
30300;DHT22;17110;52.602;12.998;2023-06-01T07:11:04;13.20;99.90
30300;DHT22;17110;52.602;12.998;2023-06-01T07:13:30;13.40;99.90
30300;DHT22;17110;52.602;12.998;2023-06-01T07:15:56;13.60;99.90
30300;DHT22;17110;52.602;12.998;2023-06-01T07:18:21;13.70;99.90
30300;DHT22;17110;52.602;12.998;2023-06-01T07:20:47;13.50;99.90
30300;DHT22;17110;52.602;12.998;2023-06-01T07:23:13;13.80;99.90
30300;DHT22;17110;52.602;12.998;2023-06-01T07:25:40;14.00;99.90
30300;DHT22;17110;52.602;12.998;2023-06-01T07:28:05;14.50;99.90
30300;DHT22;17110;52.602;12.998;2023-06-01T07:30:31;14.50;99.90
30300;DHT22;17110;52.602;12.998;2023-06-01T07:32:56;14.60;99.90
30300;DHT22;17110;52.602;12.998;2023-06-01T07:35:22;15.00;99.90
30300;DHT22;17110;52.602;12.998;2023-06-01T07:37:48;15.50;99.90
30300;DHT22;17110;52.602;12.998;2023-06-01T07:40:13;15.70;99.90
30300;DHT22;17110;52.602;12.998;2023-06-01T07:42:40;16.10;99.90
30300;DHT22;17110;52.602;12.998;2023-06-01T07:45:07;15.60;99.90
30300;DHT22;17110;52.602;12.998;2023-06-01T07:47:33;16.00;99.90
30300;DHT22;17110;52.602;12.998;2023-06-01T07:49:58;15.80;99.90
30300;DHT22;17110;52.602;12.998;2023-06-01T07:52:24;16.00;99.90
30300;DHT22;17110;52.602;12.998;2023-06-01T07:54:50;15.60;99.90
30300;DHT22;17110;52.602;12.998;2023-06-01T07:57:15;15.00;99.90
30300;DHT22;17110;52.602;12.998;2023-06-01T07:59:42;15.50;99.90
30300;DHT22;17110;52.602;12.998;2023-06-01T08:02:08;16.40;99.90
30300;DHT22;17110;52.602;12.998;2023-06-01T08:04:34;16.40;99.90
30300;DHT22;17110;52.602;12.998;2023-06-01T08:06:59;15.80;99.90
30300;DHT22;17110;52.602;12.998;2023-06-01T08:09:25;16.50;99.90
30300;DHT22;17110;52.602;12.998;2023-06-01T08:11:51;16.40;99.90
30300;DHT22;17110;52.602;12.998;2023-06-01T08:14:16;16.80;99.90
30300;DHT22;17110;52.602;12.998;2023-06-01T08:16:43;17.20;99.90
30300;DHT22;17110;52.602;12.998;2023-06-01T08:19:09;17.40;99.90
30300;DHT22;17110;52.602;12.998;2023-06-01T08:21:35;17.70;99.90
30300;DHT22;17110;52.602;12.998;2023-06-01T08:24:01;18.30;99.90
30300;DHT22;17110;52.602;12.998;2023-06-01T08:26:27;18.70;99.90
30300;DHT22;17110;52.602;12.998;2023-06-01T08:28:53;18.90;99.90
30300;DHT22;17110;52.602;12.998;2023-06-01T08:31:20;18.30;99.90
30300;DHT22;17110;52.602;12.998;2023-06-01T08:33:47;16.60;99.90
30300;DHT22;17110;52.602;12.998;2023-06-01T08:36:13;17.40;99.90
30300;DHT22;17110;52.602;12.998;2023-06-01T08:38:39;18.30;99.90
30300;DHT22;17110;52.602;12.998;2023-06-01T08:41:11;18.60;99.90
30300;DHT22;17110;52.602;12.998;2023-06-01T08:43:39;17.90;99.90
30300;DHT22;17110;52.602;12.998;2023-06-01T08:46:05;17.90;99.90
30300;DHT22;17110;52.602;12.998;2023-06-01T08:48:31;17.00;99.90
30300;DHT22;17110;52.602;12.998;2023-06-01T08:50:59;16.50;99.90
30300;DHT22;17110;52.602;12.998;2023-06-01T08:53:28;16.90;99.90
30300;DHT22;17110;52.602;12.998;2023-06-01T08:55:55;17.70;99.90
30300;DHT22;17110;52.602;12.998;2023-06-01T08:58:21;18.70;99.90
30300;DHT22;17110;52.602;12.998;2023-06-01T09:00:47;19.50;99.90
30300;DHT22;17110;52.602;12.998;2023-06-01T09:03:13;19.70;99.90
30300;DHT22;17110;52.602;12.998;2023-06-01T09:05:39;19.90;99.90
30300;DHT22;17110;52.602;12.998;2023-06-01T09:08:06;19.10;99.90
30300;DHT22;17110;52.602;12.998;2023-06-01T09:10:32;19.70;99.90
30300;DHT22;17110;52.602;12.998;2023-06-01T09:12:58;19.90;99.90
30300;DHT22;17110;52.602;12.998;2023-06-01T09:15:24;19.70;99.90
30300;DHT22;17110;52.602;12.998;2023-06-01T09:17:51;20.00;99.90
30300;DHT22;17110;52.602;12.998;2023-06-01T09:20:23;17.70;99.90
30300;DHT22;17110;52.602;12.998;2023-06-01T09:22:48;18.50;99.90
30300;DHT22;17110;52.602;12.998;2023-06-01T09:25:15;19.60;99.90
30300;DHT22;17110;52.602;12.998;2023-06-01T09:27:46;19.30;99.90
30300;DHT22;17110;52.602;12.998;2023-06-01T09:30:13;19.80;99.90
30300;DHT22;17110;52.602;12.998;2023-06-01T09:32:39;19.30;99.90
30300;DHT22;17110;52.602;12.998;2023-06-01T09:35:05;19.40;99.90
30300;DHT22;17110;52.602;12.998;2023-06-01T09:37:31;19.30;99.90
30300;DHT22;17110;52.602;12.998;2023-06-01T09:39:57;19.10;99.90
30300;DHT22;17110;52.602;12.998;2023-06-01T09:42:32;18.50;99.90
30300;DHT22;17110;52.602;12.998;2023-06-01T09:45:14;18.70;99.90
30300;DHT22;17110;52.602;12.998;2023-06-01T09:47:40;19.60;99.90
30300;DHT22;17110;52.602;12.998;2023-06-01T09:50:06;19.80;99.90
30300;DHT22;17110;52.602;12.998;2023-06-01T09:52:32;19.70;99.90
30300;DHT22;17110;52.602;12.998;2023-06-01T09:55:05;19.90;99.90
30300;DHT22;17110;52.602;12.998;2023-06-01T09:57:33;19.20;99.90
30300;DHT22;17110;52.602;12.998;2023-06-01T10:00:00;19.30;99.90
30300;DHT22;17110;52.602;12.998;2023-06-01T10:02:26;19.20;99.90
30300;DHT22;17110;52.602;12.998;2023-06-01T10:04:55;18.40;99.90
30300;DHT22;17110;52.602;12.998;2023-06-01T10:07:22;18.30;99.90
30300;DHT22;17110;52.602;12.998;2023-06-01T10:09:50;18.10;99.90
30300;DHT22;17110;52.602;12.998;2023-06-01T10:12:16;18.80;99.90
30300;DHT22;17110;52.602;12.998;2023-06-01T10:14:43;18.90;99.90
30300;DHT22;17110;52.602;12.998;2023-06-01T10:17:09;19.50;99.90
30300;DHT22;17110;52.602;12.998;2023-06-01T10:19:36;19.00;99.90
30300;DHT22;17110;52.602;12.998;2023-06-01T10:22:02;18.30;99.90
30300;DHT22;17110;52.602;12.998;2023-06-01T10:24:31;18.60;99.90
30300;DHT22;17110;52.602;12.998;2023-06-01T10:27:03;19.00;99.90
30300;DHT22;17110;52.602;12.998;2023-06-01T10:29:30;18.80;99.90
30300;DHT22;17110;52.602;12.998;2023-06-01T10:31:57;19.20;99.90
30300;DHT22;17110;52.602;12.998;2023-06-01T10:34:37;18.80;99.90
30300;DHT22;17110;52.602;12.998;2023-06-01T10:37:14;19.10;99.90
30300;DHT22;17110;52.602;12.998;2023-06-01T10:39:40;19.80;99.90
30300;DHT22;17110;52.602;12.998;2023-06-01T10:42:37;19.80;99.90
30300;DHT22;17110;52.602;12.998;2023-06-01T10:45:05;20.00;99.90
30300;DHT22;17110;52.602;12.998;2023-06-01T10:47:47;20.10;99.90
30300;DHT22;17110;52.602;12.998;2023-06-01T10:50:17;19.40;99.90
30300;DHT22;17110;52.602;12.998;2023-06-01T10:52:43;19.60;99.90
30300;DHT22;17110;52.602;12.998;2023-06-01T10:55:25;20.30;99.90
30300;DHT22;17110;52.602;12.998;2023-06-01T10:57:52;19.70;99.90
30300;DHT22;17110;52.602;12.998;2023-06-01T11:00:39;19.40;99.90
30300;DHT22;17110;52.602;12.998;2023-06-01T11:03:06;19.70;99.90
30300;DHT22;17110;52.602;12.998;2023-06-01T11:05:43;19.50;99.90
30300;DHT22;17110;52.602;12.998;2023-06-01T11:11:13;21.60;99.90
30300;DHT22;17110;52.602;12.998;2023-06-01T11:13:39;21.80;99.90
30300;DHT22;17110;52.602;12.998;2023-06-01T11:16:27;20.60;99.90
30300;DHT22;17110;52.602;12.998;2023-06-01T11:18:54;20.90;99.90
30300;DHT22;17110;52.602;12.998;2023-06-01T11:21:21;20.60;99.90
30300;DHT22;17110;52.602;12.998;2023-06-01T11:23:47;20.60;99.90
30300;DHT22;17110;52.602;12.998;2023-06-01T11:26:14;19.90;99.90
30300;DHT22;17110;52.602;12.998;2023-06-01T11:28:40;20.30;99.90
30300;DHT22;17110;52.602;12.998;2023-06-01T11:31:09;20.70;99.90
30300;DHT22;17110;52.602;12.998;2023-06-01T11:33:38;20.80;99.90
30300;DHT22;17110;52.602;12.998;2023-06-01T11:36:05;20.30;99.90
30300;DHT22;17110;52.602;12.998;2023-06-01T11:38:33;20.60;99.90
30300;DHT22;17110;52.602;12.998;2023-06-01T11:40:59;20.60;99.90
30300;DHT22;17110;52.602;12.998;2023-06-01T11:43:28;21.20;99.90
30300;DHT22;17110;52.602;12.998;2023-06-01T11:46:00;21.90;99.90
30300;DHT22;17110;52.602;12.998;2023-06-01T11:48:25;21.70;98.40
30300;DHT22;17110;52.602;12.998;2023-06-01T11:50:51;20.80;99.00
30300;DHT22;17110;52.602;12.998;2023-06-01T11:53:18;20.90;99.90
30300;DHT22;17110;52.602;12.998;2023-06-01T11:55:50;21.20;99.90
30300;DHT22;17110;52.602;12.998;2023-06-01T11:58:21;21.00;99.40
30300;DHT22;17110;52.602;12.998;2023-06-01T12:00:46;20.60;99.90
30300;DHT22;17110;52.602;12.998;2023-06-01T12:03:12;20.90;99.90
30300;DHT22;17110;52.602;12.998;2023-06-01T12:05:39;21.10;99.90
30300;DHT22;17110;52.602;12.998;2023-06-01T12:08:04;20.50;99.60
30300;DHT22;17110;52.602;12.998;2023-06-01T12:10:33;20.90;99.90
30300;DHT22;17110;52.602;12.998;2023-06-01T12:12:58;21.10;99.90
30300;DHT22;17110;52.602;12.998;2023-06-01T12:15:24;21.00;98.80
30300;DHT22;17110;52.602;12.998;2023-06-01T12:17:51;20.80;99.90
30300;DHT22;17110;52.602;12.998;2023-06-01T12:20:27;21.50;99.30
30300;DHT22;17110;52.602;12.998;2023-06-01T12:22:53;21.40;99.90
30300;DHT22;17110;52.602;12.998;2023-06-01T12:25:19;21.70;98.50
30300;DHT22;17110;52.602;12.998;2023-06-01T12:28:00;21.00;99.40
30300;DHT22;17110;52.602;12.998;2023-06-01T12:30:26;21.60;99.80
30300;DHT22;17110;52.602;12.998;2023-06-01T12:32:52;22.00;99.00
30300;DHT22;17110;52.602;12.998;2023-06-01T12:35:18;21.70;99.10
30300;DHT22;17110;52.602;12.998;2023-06-01T12:37:43;21.50;98.40
30300;DHT22;17110;52.602;12.998;2023-06-01T12:40:10;21.10;97.70
30300;DHT22;17110;52.602;12.998;2023-06-01T12:42:36;20.90;99.80
30300;DHT22;17110;52.602;12.998;2023-06-01T12:45:05;21.10;98.30
30300;DHT22;17110;52.602;12.998;2023-06-01T12:47:35;20.80;97.80
30300;DHT22;17110;52.602;12.998;2023-06-01T12:50:02;21.10;98.30
30300;DHT22;17110;52.602;12.998;2023-06-01T12:52:28;21.20;99.10
30300;DHT22;17110;52.602;12.998;2023-06-01T12:54:53;22.20;98.70
30300;DHT22;17110;52.602;12.998;2023-06-01T12:57:19;22.10;97.40
30300;DHT22;17110;52.602;12.998;2023-06-01T12:59:45;21.60;96.80
30300;DHT22;17110;52.602;12.998;2023-06-01T13:02:12;22.00;97.60
30300;DHT22;17110;52.602;12.998;2023-06-01T13:04:37;22.70;96.30
30300;DHT22;17110;52.602;12.998;2023-06-01T13:07:03;22.10;95.50
30300;DHT22;17110;52.602;12.998;2023-06-01T13:09:29;21.50;97.20
30300;DHT22;17110;52.602;12.998;2023-06-01T13:11:54;21.40;96.00
30300;DHT22;17110;52.602;12.998;2023-06-01T13:14:20;21.10;96.60
30300;DHT22;17110;52.602;12.998;2023-06-01T13:16:46;21.40;97.00
30300;DHT22;17110;52.602;12.998;2023-06-01T13:19:13;21.80;96.80
30300;DHT22;17110;52.602;12.998;2023-06-01T13:21:38;21.70;96.40
30300;DHT22;17110;52.602;12.998;2023-06-01T13:24:05;21.50;97.40
30300;DHT22;17110;52.602;12.998;2023-06-01T13:26:30;21.50;96.60
30300;DHT22;17110;52.602;12.998;2023-06-01T13:28:56;21.60;96.70
30300;DHT22;17110;52.602;12.998;2023-06-01T13:31:22;21.50;96.70
30300;DHT22;17110;52.602;12.998;2023-06-01T13:33:47;21.60;97.10
30300;DHT22;17110;52.602;12.998;2023-06-01T13:36:14;22.00;97.10
30300;DHT22;17110;52.602;12.998;2023-06-01T13:38:40;21.90;95.30
30300;DHT22;17110;52.602;12.998;2023-06-01T13:41:06;21.30;96.20
30300;DHT22;17110;52.602;12.998;2023-06-01T13:43:31;21.70;96.40
30300;DHT22;17110;52.602;12.998;2023-06-01T13:45:57;22.30;96.70
30300;DHT22;17110;52.602;12.998;2023-06-01T13:48:23;22.00;95.60
30300;DHT22;17110;52.602;12.998;2023-06-01T13:50:48;21.80;95.30
30300;DHT22;17110;52.602;12.998;2023-06-01T13:53:15;21.50;95.30
30300;DHT22;17110;52.602;12.998;2023-06-01T13:55:41;21.70;96.00
30300;DHT22;17110;52.602;12.998;2023-06-01T13:58:06;21.80;95.10
30300;DHT22;17110;52.602;12.998;2023-06-01T14:00:32;21.40;95.10
30300;DHT22;17110;52.602;12.998;2023-06-01T14:02:58;21.50;97.30
30300;DHT22;17110;52.602;12.998;2023-06-01T14:05:23;22.30;95.90
30300;DHT22;17110;52.602;12.998;2023-06-01T14:07:49;22.90;94.90
30300;DHT22;17110;52.602;12.998;2023-06-01T14:10:16;22.70;95.00
30300;DHT22;17110;52.602;12.998;2023-06-01T14:12:42;22.20;94.60
30300;DHT22;17110;52.602;12.998;2023-06-01T14:15:08;22.10;94.90
30300;DHT22;17110;52.602;12.998;2023-06-01T14:17:33;22.50;93.90
30300;DHT22;17110;52.602;12.998;2023-06-01T14:19:59;21.90;94.30
30300;DHT22;17110;52.602;12.998;2023-06-01T14:22:25;22.40;95.50
30300;DHT22;17110;52.602;12.998;2023-06-01T14:24:50;22.70;95.10
30300;DHT22;17110;52.602;12.998;2023-06-01T14:27:17;22.50;94.10
30300;DHT22;17110;52.602;12.998;2023-06-01T14:29:43;22.30;94.70
30300;DHT22;17110;52.602;12.998;2023-06-01T14:32:08;22.50;94.30
30300;DHT22;17110;52.602;12.998;2023-06-01T14:34:34;23.10;93.60
30300;DHT22;17110;52.602;12.998;2023-06-01T14:37:00;22.90;93.40
30300;DHT22;17110;52.602;12.998;2023-06-01T14:39:25;23.30;93.50
30300;DHT22;17110;52.602;12.998;2023-06-01T14:41:51;22.90;93.40
30300;DHT22;17110;52.602;12.998;2023-06-01T14:44:18;22.70;93.20
30300;DHT22;17110;52.602;12.998;2023-06-01T14:46:43;21.90;93.70
30300;DHT22;17110;52.602;12.998;2023-06-01T14:49:09;21.90;94.00
30300;DHT22;17110;52.602;12.998;2023-06-01T14:51:35;21.80;94.30
30300;DHT22;17110;52.602;12.998;2023-06-01T14:54:00;22.10;94.80
30300;DHT22;17110;52.602;12.998;2023-06-01T14:56:26;22.50;93.40
30300;DHT22;17110;52.602;12.998;2023-06-01T14:58:52;22.40;93.80
30300;DHT22;17110;52.602;12.998;2023-06-01T15:01:19;22.30;93.80
30300;DHT22;17110;52.602;12.998;2023-06-01T15:03:44;22.60;93.70
30300;DHT22;17110;52.602;12.998;2023-06-01T15:06:10;22.90;93.40
30300;DHT22;17110;52.602;12.998;2023-06-01T15:08:36;23.10;93.30
30300;DHT22;17110;52.602;12.998;2023-06-01T15:11:01;23.20;92.70
30300;DHT22;17110;52.602;12.998;2023-06-01T15:13:27;23.40;92.80
30300;DHT22;17110;52.602;12.998;2023-06-01T15:15:53;22.60;92.30
30300;DHT22;17110;52.602;12.998;2023-06-01T15:18:20;22.70;92.70